createdAt,value
2023-09-27T00:00:28.542Z,0.12
2023-09-27T00:03:28.578Z,0
2023-09-27T00:06:28.682Z,0
2023-09-27T00:09:28.502Z,0
2023-09-27T00:12:28.507Z,0.18
2023-09-27T00:15:28.548Z,0.02
2023-09-27T00:18:28.572Z,0.01
2023-09-27T00:21:28.545Z,0
2023-09-27T00:24:28.547Z,0.02
2023-09-27T00:27:28.600Z,0.13
2023-09-27T00:30:28.565Z,0.12
2023-09-27T00:33:28.584Z,0
2023-09-27T00:36:28.566Z,0
2023-09-27T00:39:28.618Z,0.2
2023-09-27T00:42:28.606Z,0.14
2023-09-27T00:45:28.558Z,0.05
2023-09-27T00:48:28.570Z,0.24
2023-09-27T00:51:28.610Z,0.22
2023-09-27T00:54:28.604Z,0.13
2023-09-27T00:57:28.569Z,0
2023-09-27T01:00:28.627Z,0
2023-09-27T01:03:28.594Z,0
2023-09-27T01:06:31.843Z,0
2023-09-27T01:09:28.606Z,0.02
2023-09-27T01:12:28.680Z,0.3
2023-09-27T01:15:28.618Z,0.28
2023-09-27T01:18:28.591Z,0.29
2023-09-27T01:21:28.589Z,0.16
2023-09-27T01:24:28.653Z,0.01
2023-09-27T01:27:28.580Z,0.05
2023-09-27T01:30:28.650Z,0
2023-09-27T01:33:28.593Z,0.01
2023-09-27T01:36:28.661Z,0
2023-09-27T01:39:28.660Z,0.12
2023-09-27T01:42:28.633Z,0.06
2023-09-27T01:45:28.670Z,0
2023-09-27T01:48:28.597Z,0.01
2023-09-27T01:51:28.622Z,0.04
2023-09-27T01:54:28.602Z,0.02
2023-09-27T01:57:28.635Z,0.1
2023-09-27T02:00:28.638Z,0
2023-09-27T02:03:28.696Z,0
2023-09-27T02:06:28.613Z,0
2023-09-27T02:09:28.663Z,0
2023-09-27T02:12:28.641Z,0
2023-09-27T02:15:28.652Z,0.01
2023-09-27T02:18:28.693Z,0
2023-09-27T02:21:28.681Z,0
2023-09-27T02:24:28.642Z,0
2023-09-27T02:27:28.703Z,0
2023-09-27T02:30:28.639Z,0
2023-09-27T02:33:28.699Z,0
2023-09-27T02:36:28.679Z,0
2023-09-27T02:39:28.613Z,0
2023-09-27T02:42:28.720Z,0
2023-09-27T02:45:28.726Z,0
2023-09-27T02:48:28.651Z,0
2023-09-27T02:51:28.617Z,0
2023-09-27T02:54:28.717Z,0
2023-09-27T02:57:28.638Z,0
2023-09-27T03:00:28.661Z,0
2023-09-27T03:03:28.789Z,0
2023-09-27T03:06:28.723Z,0
2023-09-27T03:09:28.703Z,0
2023-09-27T03:12:28.717Z,0.13
2023-09-27T03:15:28.813Z,0.24
2023-09-27T03:18:28.720Z,0.01
2023-09-27T03:21:28.705Z,0
2023-09-27T03:24:28.687Z,0.01
2023-09-27T03:27:28.737Z,0.16
2023-09-27T03:30:28.671Z,0.09
2023-09-27T03:33:28.729Z,0.17
2023-09-27T03:36:28.744Z,0.15
2023-09-27T03:39:28.669Z,0
2023-09-27T03:42:28.715Z,0
2023-09-27T03:45:28.734Z,0
2023-09-27T03:48:28.731Z,0.02
2023-09-27T03:51:28.707Z,0
2023-09-27T03:54:28.767Z,0
2023-09-27T03:57:28.768Z,0
2023-09-27T04:00:28.840Z,0
2023-09-27T04:03:28.797Z,0
2023-09-27T04:06:28.803Z,0
2023-09-27T04:09:28.754Z,0
2023-09-27T04:12:28.747Z,0.03
2023-09-27T04:15:28.742Z,0.14
2023-09-27T04:18:28.810Z,0.13
2023-09-27T04:21:29.208Z,0.19
2023-09-27T04:24:28.738Z,0.05
2023-09-27T04:27:28.721Z,0
2023-09-27T04:30:28.809Z,0.06
2023-09-27T04:33:28.839Z,0.07
2023-09-27T04:36:28.841Z,0.09
2023-09-27T04:39:28.784Z,0
2023-09-27T04:42:28.805Z,0
2023-09-27T04:45:28.770Z,0.14
2023-09-27T04:48:28.803Z,0.15
2023-09-27T04:51:28.809Z,0.3
2023-09-27T04:54:31.552Z,0.15
2023-09-27T04:57:28.841Z,0.09
2023-09-27T05:00:28.793Z,0.12
2023-09-27T05:03:31.500Z,0.05
2023-09-27T05:06:31.603Z,0.01
2023-09-27T05:09:28.829Z,0.01
2023-09-27T05:12:28.861Z,0
2023-09-27T05:15:29.021Z,0
2023-09-27T05:18:28.813Z,0.02
2023-09-27T05:21:28.770Z,0.01
2023-09-27T05:24:28.788Z,0
2023-09-27T05:27:28.768Z,0
2023-09-27T05:30:28.786Z,0
2023-09-27T05:33:28.880Z,0.04
2023-09-27T05:36:28.851Z,0.32
2023-09-27T05:39:28.817Z,0.34
2023-09-27T05:42:28.780Z,0.38
2023-09-27T05:45:28.887Z,0.38
2023-09-27T05:48:28.890Z,0.35
2023-09-27T05:51:28.840Z,0.1
2023-09-27T05:54:28.866Z,0.01
2023-09-27T05:57:28.798Z,0.01
2023-09-27T06:00:28.853Z,0.01
2023-09-27T06:03:28.912Z,0.31
2023-09-27T06:06:28.841Z,0.22
2023-09-27T06:09:28.837Z,0.12
2023-09-27T06:12:28.820Z,0.13
2023-09-27T06:15:28.829Z,0.02
2023-09-27T06:18:28.844Z,0.01
2023-09-27T06:21:28.890Z,0
2023-09-27T06:24:28.825Z,0
2023-09-27T06:27:28.888Z,0.05
2023-09-27T06:30:28.899Z,0.02
2023-09-27T06:33:28.903Z,0.13
2023-09-27T06:36:28.841Z,0.34
2023-09-27T06:39:28.910Z,0.38
2023-09-27T06:42:28.909Z,0.37
2023-09-27T06:45:28.861Z,0.44
2023-09-27T06:48:29.041Z,0.02
2023-09-27T06:51:28.845Z,0.06
2023-09-27T06:54:28.937Z,0.33
2023-09-27T06:57:28.970Z,0.39
2023-09-27T07:00:28.899Z,0.17
2023-09-27T07:03:28.998Z,0.05
2023-09-27T07:06:28.925Z,0.08
2023-09-27T07:09:28.929Z,0.44
2023-09-27T07:12:28.873Z,0.45
2023-09-27T07:15:28.943Z,0.41
2023-09-27T07:18:29.036Z,0.14
2023-09-27T07:21:28.906Z,0
2023-09-27T07:24:28.986Z,0
2023-09-27T07:27:28.903Z,0.01
2023-09-27T07:30:28.948Z,0.02
2023-09-27T07:33:28.957Z,0.09
2023-09-27T07:36:28.931Z,0
2023-09-27T07:39:29.008Z,0
2023-09-27T07:42:28.940Z,0.04
2023-09-27T07:45:28.931Z,0
2023-09-27T07:48:28.986Z,0.05
2023-09-27T07:51:28.936Z,0.1
2023-09-27T07:54:29.038Z,0.14
2023-09-27T07:57:28.900Z,0.25
2023-09-27T08:00:29.159Z,0.12
2023-09-27T08:03:29.090Z,0.09
2023-09-27T08:06:28.995Z,0.22
2023-09-27T08:12:28.954Z,0.65
2023-09-27T08:15:28.965Z,0.75
2023-09-27T08:18:29.144Z,0.4
2023-09-27T08:21:28.981Z,0.52
2023-09-27T08:24:28.976Z,0.61
2023-09-27T08:27:28.935Z,0.41
2023-09-27T08:30:29.030Z,0.48
2023-09-27T08:33:29.096Z,0.62
2023-09-27T08:36:29.057Z,0.64
2023-09-27T08:39:29.059Z,0.4
2023-09-27T08:42:28.973Z,0.34
2023-09-27T08:45:29.025Z,0.06
2023-09-27T08:51:29.001Z,0.04
2023-09-27T08:54:29.013Z,0.19
2023-09-27T08:57:29.260Z,0.08
2023-09-27T09:00:29.043Z,0.09
2023-09-27T09:03:29.037Z,0.43
2023-09-27T09:06:29.298Z,0.07
2023-09-27T09:09:29.078Z,0.27
2023-09-27T09:12:29.059Z,0.41
2023-09-27T09:15:29.010Z,0.56
2023-09-27T09:18:29.025Z,0.42
2023-09-27T09:21:29.054Z,0.46
2023-09-27T09:24:29.041Z,0.35
2023-09-27T09:27:29.013Z,0.41
2023-09-27T09:30:29.035Z,0.62
2023-09-27T09:33:29.108Z,0.56
2023-09-27T09:36:29.055Z,0.78
2023-09-27T09:39:29.090Z,0.54
2023-09-27T09:42:29.110Z,0.74
2023-09-27T09:45:29.049Z,0.79
2023-09-27T09:48:29.057Z,0.57
2023-09-27T09:51:29.029Z,0.49
2023-09-27T09:54:29.058Z,0.61
2023-09-27T09:57:40.047Z,0.22
2023-09-27T10:00:29.069Z,0.47
2023-09-27T10:03:29.099Z,0.41
2023-09-27T10:06:41.404Z,0.51
2023-09-27T10:09:29.094Z,0.68
2023-09-27T10:12:29.066Z,0.69
2023-09-27T10:15:29.081Z,0.69
2023-09-27T10:18:29.076Z,0.78
2023-09-27T10:21:29.061Z,0.64
2023-09-27T10:24:29.069Z,1.08
2023-09-27T10:27:29.084Z,0.86
2023-09-27T10:30:29.103Z,0.82
2023-09-27T10:33:29.113Z,1.01
2023-09-27T10:36:29.104Z,0.91
2023-09-27T10:39:29.178Z,0.84
2023-09-27T10:42:29.084Z,1.37
2023-09-27T10:45:29.127Z,1.12
2023-09-27T10:48:29.202Z,0.92
2023-09-27T10:51:29.142Z,1.21
2023-09-27T10:54:30.485Z,0.99
2023-09-27T10:57:29.088Z,0.94
2023-09-27T11:00:29.306Z,1
2023-09-27T11:03:29.183Z,1.08
2023-09-27T11:06:29.108Z,1.17
2023-09-27T11:09:29.304Z,1.19
2023-09-27T11:12:29.099Z,1.27
2023-09-27T11:15:29.173Z,0.81
2023-09-27T11:18:32.044Z,0.82
2023-09-27T11:21:29.279Z,0.64
2023-09-27T11:24:29.206Z,1.03
2023-09-27T11:27:29.185Z,1.14
2023-09-27T11:30:29.205Z,0.92
2023-09-27T11:33:29.151Z,1.14
2023-09-27T11:36:29.135Z,0.68
2023-09-27T11:39:29.161Z,0.93
2023-09-27T11:42:29.186Z,0.98
2023-09-27T11:45:29.169Z,1.06
2023-09-27T11:48:29.466Z,0.98
2023-09-27T11:51:29.706Z,0.95
2023-09-27T11:54:29.233Z,0.92
2023-09-27T11:57:29.185Z,1.09
2023-09-27T12:00:29.212Z,0.91
2023-09-27T12:03:30.168Z,0.84
2023-09-27T12:06:29.352Z,0.83
2023-09-27T12:09:29.218Z,0.69
2023-09-27T12:12:29.294Z,0.69
2023-09-27T12:15:29.204Z,0.68
2023-09-27T12:18:29.213Z,0.52
2023-09-27T12:21:29.250Z,0.45
2023-09-27T12:24:29.153Z,0.7
2023-09-27T12:27:29.273Z,0.89
2023-09-27T12:30:29.235Z,0.53
2023-09-27T12:33:29.242Z,0.58
2023-09-27T12:36:29.198Z,0.52
2023-09-27T12:39:29.214Z,0.66
2023-09-27T12:42:29.256Z,0.63
2023-09-27T12:45:29.229Z,0.6
2023-09-27T12:48:29.259Z,0.43
2023-09-27T12:51:35.491Z,0.82
2023-09-27T12:54:29.273Z,0.68
2023-09-27T12:57:29.235Z,0.41
2023-09-27T13:00:29.252Z,0.49
2023-09-27T13:03:29.276Z,0.36
2023-09-27T13:06:29.274Z,0.35
2023-09-27T13:09:29.243Z,0.32
2023-09-27T13:12:29.273Z,0.46
2023-09-27T13:15:29.349Z,0.39
2023-09-27T13:18:29.248Z,0.68
2023-09-27T13:21:29.208Z,0.51
2023-09-27T13:24:29.350Z,0.52
2023-09-27T13:27:29.305Z,0.09
2023-09-27T13:30:35.199Z,0.15
2023-09-27T13:33:29.260Z,0.33
2023-09-27T13:36:29.285Z,0.46
2023-09-27T13:39:29.266Z,0.45
2023-09-27T13:42:29.344Z,0.57
2023-09-27T13:45:29.423Z,0.62
2023-09-27T13:48:29.280Z,0.46
2023-09-27T13:51:29.382Z,0.67
2023-09-27T13:54:29.275Z,0.34
2023-09-27T13:57:29.331Z,0.61
2023-09-27T14:00:29.343Z,0.39
2023-09-27T14:03:29.297Z,0.5
2023-09-27T14:06:29.426Z,0.28
2023-09-27T14:09:29.258Z,0.31
2023-09-27T14:12:29.338Z,0.33
2023-09-27T14:15:29.415Z,0.67
2023-09-27T14:18:32.269Z,0.46
2023-09-27T14:21:29.361Z,0.28
2023-09-27T14:24:29.374Z,0.26
2023-09-27T14:27:29.419Z,0.26
2023-09-27T14:30:29.337Z,0.53
2023-09-27T14:33:29.366Z,0.34
2023-09-27T14:36:29.295Z,0.51
2023-09-27T14:39:29.358Z,0.35
2023-09-27T14:42:29.360Z,0.54
2023-09-27T14:45:32.461Z,0.74
2023-09-27T14:48:29.499Z,0.32
2023-09-27T14:51:29.392Z,0.14
2023-09-27T14:54:29.405Z,0.28
2023-09-27T14:57:29.419Z,0.5
2023-09-27T15:00:29.313Z,0.34
2023-09-27T15:03:29.730Z,0.69
2023-09-27T15:06:29.429Z,0.39
2023-09-27T15:09:29.341Z,0.39
2023-09-27T15:12:29.549Z,0.41
2023-09-27T15:15:29.369Z,0.44
2023-09-27T15:18:29.466Z,0.35
2023-09-27T15:21:29.361Z,0.49
2023-09-27T15:24:29.353Z,0.54
2023-09-27T15:27:29.361Z,0.59
2023-09-27T15:30:29.361Z,0.49
2023-09-27T15:33:29.324Z,0.71
2023-09-27T15:36:29.368Z,0.6
2023-09-27T15:39:29.396Z,0.48
2023-09-27T15:42:29.406Z,0.52
2023-09-27T15:45:29.372Z,0.43
2023-09-27T15:48:29.415Z,0.48
2023-09-27T15:51:29.381Z,0.55
2023-09-27T15:54:29.413Z,0.56
2023-09-27T15:57:29.369Z,0.44
2023-09-27T16:00:29.411Z,0.33
2023-09-27T16:03:29.495Z,0.52
2023-09-27T16:06:29.440Z,0.44
2023-09-27T16:09:29.355Z,0.37
2023-09-27T16:12:29.438Z,0.35
2023-09-27T16:15:29.489Z,0.22
2023-09-27T16:18:29.446Z,0.46
2023-09-27T16:21:29.465Z,0.35
2023-09-27T16:24:31.827Z,0.51
2023-09-27T16:27:29.403Z,0.47
2023-09-27T16:30:29.386Z,0.43
2023-09-27T16:33:29.580Z,0.56
2023-09-27T16:36:29.472Z,0.64
2023-09-27T16:39:29.464Z,0.45
2023-09-27T16:42:29.457Z,0.63
2023-09-27T16:45:29.472Z,0.41
2023-09-27T16:48:29.438Z,0.36
2023-09-27T16:51:29.399Z,0.24
2023-09-27T16:54:29.477Z,0.25
2023-09-27T16:57:29.409Z,0.4
2023-09-27T17:00:29.447Z,0.37
2023-09-27T17:03:29.561Z,0.45
2023-09-27T17:06:29.504Z,0.28
2023-09-27T17:09:29.495Z,0.16
2023-09-27T17:12:29.478Z,0.31
2023-09-27T17:15:29.467Z,0.23
2023-09-27T17:18:31.372Z,0.33
2023-09-27T17:21:29.485Z,0.34
2023-09-27T17:24:29.542Z,0.19
2023-09-27T17:27:29.477Z,0.3
2023-09-27T17:30:29.478Z,0.41
2023-09-27T17:33:29.571Z,0.28
2023-09-27T17:36:29.537Z,0.24
2023-09-27T17:39:29.569Z,0.32
2023-09-27T17:42:29.487Z,0.29
2023-09-27T17:45:29.522Z,0.22
2023-09-27T17:48:29.515Z,0.26
2023-09-27T17:51:29.511Z,0.36
2023-09-27T17:54:29.560Z,0.32
2023-09-27T17:57:29.513Z,0.22
2023-09-27T18:00:29.503Z,0.21
2023-09-27T18:03:29.581Z,0.24
2023-09-27T18:06:29.510Z,0.16
2023-09-27T18:09:29.514Z,0.05
2023-09-27T18:12:29.512Z,0.06
2023-09-27T18:15:29.638Z,0.04
2023-09-27T18:18:29.506Z,0.21
2023-09-27T18:21:29.554Z,0.18
2023-09-27T18:24:29.635Z,0.01
2023-09-27T18:27:29.587Z,0
2023-09-27T18:30:29.865Z,0.04
2023-09-27T18:33:29.557Z,0.03
2023-09-27T18:36:29.498Z,0.01
2023-09-27T18:39:29.563Z,0.04
2023-09-27T18:42:29.564Z,0.05
2023-09-27T18:45:29.531Z,0.01
2023-09-27T18:48:29.697Z,0
2023-09-27T18:51:29.566Z,0
2023-09-27T18:54:29.556Z,0
2023-09-27T18:57:29.641Z,0
2023-09-27T19:00:29.565Z,0.03
2023-09-27T19:03:29.579Z,0
2023-09-27T19:06:29.577Z,0
2023-09-27T19:09:29.582Z,0
2023-09-27T19:12:29.567Z,0.05
2023-09-27T19:15:29.573Z,0
2023-09-27T19:18:29.553Z,0
2023-09-27T19:21:29.533Z,0.04
2023-09-27T19:24:29.613Z,0.03
2023-09-27T19:27:29.536Z,0
2023-09-27T19:30:29.620Z,0
2023-09-27T19:33:29.615Z,0.02
2023-09-27T19:36:29.609Z,0
2023-09-27T19:39:29.597Z,0.01
2023-09-27T19:42:29.630Z,0.03
2023-09-27T19:45:29.582Z,0.1
2023-09-27T19:48:29.595Z,0.08
2023-09-27T19:51:29.634Z,0.1
2023-09-27T19:54:29.580Z,0.24
2023-09-27T19:57:29.675Z,0.1
2023-09-27T20:00:29.565Z,0.03
2023-09-27T20:03:29.675Z,0
2023-09-27T20:06:29.660Z,0
2023-09-27T20:09:29.618Z,0.07
2023-09-27T20:12:29.577Z,0.08
2023-09-27T20:15:29.586Z,0.01
2023-09-27T20:18:29.651Z,0
2023-09-27T20:21:29.663Z,0.01
2023-09-27T20:24:29.591Z,0.08
2023-09-27T20:27:29.606Z,0.27
2023-09-27T20:30:29.658Z,0.11
2023-09-27T20:33:29.614Z,0.11
2023-09-27T20:36:29.593Z,0.07
2023-09-27T20:39:29.697Z,0.08
2023-09-27T20:42:29.591Z,0.21
2023-09-27T20:45:29.655Z,0.09
2023-09-27T20:48:29.661Z,0.25
2023-09-27T20:51:29.669Z,0.14
2023-09-27T20:54:29.646Z,0.34
2023-09-27T20:57:29.654Z,0.11
2023-09-27T21:00:29.923Z,0.01
2023-09-27T21:03:29.687Z,0.1
2023-09-27T21:06:29.682Z,0.19
2023-09-27T21:09:29.638Z,0.17
2023-09-27T21:12:29.717Z,0.09
2023-09-27T21:15:29.615Z,0
2023-09-27T21:18:29.733Z,0
2023-09-27T21:21:29.661Z,0.01
2023-09-27T21:24:29.793Z,0.07
2023-09-27T21:27:29.692Z,0.01
2023-09-27T21:30:29.724Z,0.01
2023-09-27T21:33:29.639Z,0
2023-09-27T21:36:29.721Z,0.01
2023-09-27T21:39:29.686Z,0.15
2023-09-27T21:42:29.679Z,0.14
2023-09-27T21:45:29.690Z,0.24
2023-09-27T21:48:29.729Z,0.11
2023-09-27T21:51:29.740Z,0.29
2023-09-27T21:54:29.724Z,0.36
2023-09-27T21:57:29.735Z,0.68
2023-09-27T22:00:29.749Z,0.69
2023-09-27T22:03:29.696Z,0.65
2023-09-27T22:06:29.705Z,0.62
2023-09-27T22:09:29.756Z,0.71
2023-09-27T22:12:29.678Z,0.6
2023-09-27T22:15:29.768Z,0.69
2023-09-27T22:18:29.708Z,0.86
2023-09-27T22:21:29.775Z,0.8
2023-09-27T22:24:29.847Z,0.41
2023-09-27T22:27:29.701Z,0.58
2023-09-27T22:30:29.757Z,0.38
2023-09-27T22:33:29.768Z,0.67
2023-09-27T22:36:29.722Z,0.49
2023-09-27T22:39:29.710Z,0.55
2023-09-27T22:42:29.718Z,0.68
2023-09-27T22:45:29.827Z,0.58
2023-09-27T22:48:29.762Z,0.38
2023-09-27T22:51:29.754Z,0.44
2023-09-27T22:54:29.757Z,0.45
2023-09-27T22:57:29.786Z,0.43
2023-09-27T23:00:29.809Z,0.21
2023-09-27T23:03:29.837Z,0.25
2023-09-27T23:06:29.734Z,0.29
2023-09-27T23:09:29.817Z,0.1
2023-09-27T23:12:29.778Z,0.33
2023-09-27T23:15:29.812Z,0.41
2023-09-27T23:18:29.746Z,0.52
2023-09-27T23:21:29.854Z,0.32
2023-09-27T23:24:29.780Z,0.43
2023-09-27T23:27:29.772Z,0.25
2023-09-27T23:30:29.747Z,0.36
2023-09-27T23:33:29.800Z,0.36
2023-09-27T23:36:29.812Z,0.39
2023-09-27T23:39:29.759Z,0.43
2023-09-27T23:42:29.864Z,0.32
2023-09-27T23:45:29.793Z,0.55
2023-09-27T23:48:29.793Z,0.44
2023-09-27T23:51:29.784Z,0.45
2023-09-27T23:54:29.858Z,0.56
2023-09-27T23:57:29.825Z,0.23
